Time;durP1;ratioP1;P1;durP2;ratioP2;P2;SDS_P1;SDS_P2;PMS_P1;PMS_P2;Temp;Humidity;BMP_temperature;BMP_pressure;BME280_temperature;BME280_humidity;BME280_pressure;Samples;Min_cycle;Max_cycle;Signal;HPM_P1;HPM_P2
2021/06/13 00:00:42;;;;;;;7.63;5.17;;;14.50;99.90;;;;;;5075265;28;20156;-70
2021/06/13 00:03:08;;;;;;;7.57;5.20;;;14.50;99.90;;;;;;5094997;28;20450;-70
2021/06/13 00:05:34;;;;;;;10.20;5.00;;;14.50;99.90;;;;;;5095417;28;20476;-70
2021/06/13 00:08:00;;;;;;;8.73;5.33;;;14.50;99.90;;;;;;5095399;28;20400;-70
2021/06/13 00:10:26;;;;;;;11.87;5.90;;;14.40;99.90;;;;;;5095568;28;20484;-70
2021/06/13 00:12:51;;;;;;;8.27;4.73;;;14.40;99.90;;;;;;5095648;28;20163;-70
2021/06/13 00:15:20;;;;;;;7.80;6.07;;;14.30;99.90;;;;;;5095173;28;20209;-71
2021/06/13 00:17:46;;;;;;;9.97;5.13;;;14.30;99.90;;;;;;5094667;28;20518;-70
2021/06/13 00:20:15;;;;;;;9.33;5.70;;;14.30;99.90;;;;;;5094773;28;20401;-70
2021/06/13 00:22:40;;;;;;;7.13;5.13;;;14.20;99.90;;;;;;5094849;28;20611;-70
2021/06/13 00:25:08;;;;;;;7.57;5.70;;;14.20;99.90;;;;;;5095403;28;20398;-70
2021/06/13 00:27:34;;;;;;;12.47;6.07;;;14.20;99.90;;;;;;5094820;28;20190;-71
2021/06/13 00:30:00;;;;;;;9.97;6.07;;;14.20;99.90;;;;;;5094724;28;20433;-70
2021/06/13 00:32:25;;;;;;;10.30;6.00;;;14.10;99.90;;;;;;5094742;28;20171;-70
2021/06/13 00:34:51;;;;;;;13.50;6.00;;;14.10;99.90;;;;;;5093754;28;20170;-70
2021/06/13 00:37:16;;;;;;;8.70;6.10;;;14.10;99.90;;;;;;5074411;28;20156;-70
2021/06/13 00:39:42;;;;;;;14.20;6.97;;;14.00;99.90;;;;;;5074473;28;20220;-70
2021/06/13 00:42:07;;;;;;;11.47;6.70;;;14.00;99.90;;;;;;5074271;28;20262;-70
2021/06/13 00:44:33;;;;;;;10.20;7.10;;;14.00;99.90;;;;;;5073685;28;20148;-71
2021/06/13 00:46:58;;;;;;;10.37;6.87;;;13.90;99.90;;;;;;5073959;28;20157;-71
2021/06/13 00:49:24;;;;;;;9.70;6.77;;;13.90;99.90;;;;;;5074233;28;20186;-70
2021/06/13 00:51:50;;;;;;;7.83;6.50;;;13.80;99.90;;;;;;5074700;28;20167;-71
2021/06/13 00:54:16;;;;;;;9.73;5.67;;;13.80;99.90;;;;;;5074545;28;20530;-71
2021/06/13 00:56:42;;;;;;;13.30;8.17;;;13.70;99.90;;;;;;5074103;28;20444;-70
2021/06/13 00:59:07;;;;;;;9.93;6.33;;;13.70;99.90;;;;;;5074088;28;20285;-70
2021/06/13 01:01:33;;;;;;;11.03;7.00;;;13.70;99.90;;;;;;5073913;28;20192;-70
2021/06/13 01:03:59;;;;;;;10.70;6.43;;;13.70;99.90;;;;;;5073894;28;20218;-70
2021/06/13 01:06:42;;;;;;;10.10;6.47;;;13.70;99.90;;;;;;5074209;28;20147;-70
2021/06/13 01:09:10;;;;;;;7.30;6.20;;;13.70;99.90;;;;;;5074626;28;20645;-70
2021/06/13 01:11:48;;;;;;;13.73;7.53;;;13.60;99.90;;;;;;5073714;28;20390;-70
2021/06/13 01:26:04;;;;;;;9.23;5.50;;;13.60;99.90;;;;;;5147403;27;20334;-71
2021/06/13 01:29:10;;;;;;;8.17;6.87;;;13.60;99.90;;;;;;5109962;28;20882;-71
2021/06/13 01:34:20;;;;;;;14.03;6.97;;;13.50;99.90;;;;;;5147487;27;20378;-69
2021/06/13 01:36:47;;;;;;;13.87;7.83;;;13.50;99.90;;;;;;5131849;28;20418;-69
2021/06/13 01:39:18;;;;;;;11.53;7.17;;;13.50;99.90;;;;;;5131492;28;20411;-69
2021/06/13 01:41:46;;;;;;;13.30;6.60;;;13.50;99.90;;;;;;5131491;28;20442;-69
2021/06/13 01:44:12;;;;;;;9.90;6.40;;;13.50;99.90;;;;;;5118993;28;20435;-69
2021/06/13 01:46:40;;;;;;;14.83;7.40;;;13.40;99.90;;;;;;5110880;28;20396;-69
2021/06/13 01:49:06;;;;;;;13.53;7.73;;;13.40;99.90;;;;;;5110670;28;20388;-69
2021/06/13 01:51:32;;;;;;;13.93;7.30;;;13.40;99.90;;;;;;5110967;28;20389;-69
2021/06/13 01:54:00;;;;;;;11.63;7.73;;;13.40;99.90;;;;;;5129569;28;20493;-69
2021/06/13 01:56:26;;;;;;;10.13;6.10;;;13.40;99.90;;;;;;5130903;28;20888;-69
2021/06/13 01:58:56;;;;;;;11.53;7.93;;;13.40;99.90;;;;;;5130849;28;20423;-69
2021/06/13 02:01:25;;;;;;;16.43;7.73;;;13.30;99.90;;;;;;5129986;28;20406;-69
2021/06/13 02:03:53;;;;;;;12.70;7.23;;;13.30;99.90;;;;;;5130857;28;20415;-69
2021/06/13 02:06:24;;;;;;;10.57;7.27;;;13.30;99.90;;;;;;5131210;28;20431;-69
2021/06/13 02:08:52;;;;;;;13.53;8.80;;;13.30;99.90;;;;;;5130468;28;20429;-69
2021/06/13 02:11:19;;;;;;;16.83;10.23;;;13.30;99.90;;;;;;5130522;28;20396;-70
2021/06/13 02:13:47;;;;;;;13.30;8.07;;;13.30;99.90;;;;;;5130520;28;20970;-70
2021/06/13 02:16:15;;;;;;;10.10;7.67;;;13.30;99.90;;;;;;5130961;28;20399;-69
2021/06/13 02:18:42;;;;;;;11.80;7.80;;;13.30;99.90;;;;;;5129788;28;20408;-69
2021/06/13 02:21:10;;;;;;;12.10;7.30;;;13.20;99.90;;;;;;5130700;28;20388;-69
2021/06/13 02:23:38;;;;;;;14.70;7.63;;;13.20;99.90;;;;;;5130372;28;20418;-69
2021/06/13 02:26:03;;;;;;;7.73;6.50;;;13.20;99.90;;;;;;5131008;28;20420;-69
2021/06/13 02:28:32;;;;;;;10.70;7.67;;;13.20;99.90;;;;;;5130322;28;20432;-69
2021/06/13 02:31:00;;;;;;;13.57;8.37;;;13.20;99.90;;;;;;5130814;28;20180;-69
2021/06/13 02:33:26;;;;;;;13.00;7.90;;;13.20;99.90;;;;;;5130209;28;20467;-69
2021/06/13 02:35:53;;;;;;;12.40;8.20;;;13.10;99.90;;;;;;5112740;28;20413;-70
2021/06/13 02:38:20;;;;;;;17.93;8.00;;;13.10;99.90;;;;;;5109701;28;20942;-69
2021/06/13 02:40:47;;;;;;;12.10;7.77;;;13.10;99.90;;;;;;5109570;28;20483;-69
2021/06/13 02:43:13;;;;;;;10.60;7.77;;;13.10;99.90;;;;;;5109684;28;20888;-69
2021/06/13 02:45:40;;;;;;;13.33;8.30;;;13.00;99.90;;;;;;5095881;28;20488;-69
2021/06/13 02:48:06;;;;;;;12.30;7.43;;;13.00;99.90;;;;;;5096142;28;20164;-69
2021/06/13 02:50:33;;;;;;;12.67;8.87;;;13.00;99.90;;;;;;5096496;28;20929;-70
2021/06/13 02:53:09;;;;;;;10.63;8.40;;;13.00;99.90;;;;;;5096541;28;20503;-69
2021/06/13 02:55:58;;;;;;;12.50;8.23;;;13.00;99.90;;;;;;5104529;28;20400;-69
2021/06/13 02:58:40;;;;;;;10.70;8.70;;;13.00;99.90;;;;;;5114895;28;20408;-69
2021/06/13 03:01:07;;;;;;;13.20;9.53;;;12.90;99.90;;;;;;5116165;28;20518;-69
2021/06/13 03:03:33;;;;;;;10.50;8.30;;;12.90;99.90;;;;;;5116118;28;20388;-69
2021/06/13 03:06:01;;;;;;;14.07;9.60;;;12.80;99.90;;;;;;5116413;28;20724;-69
2021/06/13 03:08:27;;;;;;;16.10;8.77;;;12.80;99.90;;;;;;5115106;28;20171;-70
2021/06/13 03:10:53;;;;;;;11.00;8.53;;;12.80;99.90;;;;;;5115743;28;20756;-70
2021/06/13 03:13:25;;;;;;;13.97;8.80;;;12.80;99.90;;;;;;5115813;28;20191;-69
2021/06/13 03:15:51;;;;;;;16.27;9.47;;;12.80;99.90;;;;;;5115806;28;20389;-69
2021/06/13 03:18:18;;;;;;;19.53;9.27;;;12.80;99.90;;;;;;5115903;28;20904;-69
2021/06/13 03:20:44;;;;;;;16.37;9.97;;;12.80;99.90;;;;;;5115880;28;20476;-70
2021/06/13 03:23:10;;;;;;;12.97;9.67;;;12.80;99.90;;;;;;5115396;28;20488;-69
2021/06/13 03:25:37;;;;;;;18.73;9.53;;;12.70;99.90;;;;;;5114477;28;20832;-69
2021/06/13 03:28:04;;;;;;;17.17;9.43;;;12.70;99.90;;;;;;5115556;28;20906;-69
2021/06/13 03:30:29;;;;;;;12.77;9.20;;;12.70;99.90;;;;;;5115543;28;20389;-69
2021/06/13 03:32:55;;;;;;;13.40;8.50;;;12.70;99.90;;;;;;5115286;28;20470;-69
2021/06/13 03:35:22;;;;;;;16.90;8.63;;;12.60;99.90;;;;;;5115571;28;20147;-70
2021/06/13 03:37:49;;;;;;;11.40;9.47;;;12.60;99.90;;;;;;5115518;28;20546;-69
2021/06/13 03:40:16;;;;;;;15.90;8.90;;;12.60;99.90;;;;;;5115266;28;20388;-71
2021/06/13 03:42:42;;;;;;;14.10;9.30;;;12.60;99.90;;;;;;5114585;28;20996;-69
2021/06/13 03:45:09;;;;;;;15.10;9.17;;;12.60;99.90;;;;;;5115223;28;20484;-69
2021/06/13 03:47:35;;;;;;;14.83;9.37;;;12.70;99.90;;;;;;5115322;28;20399;-69
2021/06/13 03:50:02;;;;;;;17.10;9.20;;;12.60;99.90;;;;;;5115471;28;20483;-71
2021/06/13 03:52:28;;;;;;;12.93;8.97;;;12.60;99.90;;;;;;5114980;28;20183;-69
2021/06/13 03:54:54;;;;;;;13.33;9.13;;;12.60;99.90;;;;;;5111690;28;20912;-70
2021/06/13 03:57:21;;;;;;;13.83;8.83;;;12.60;99.90;;;;;;5093567;28;20158;-72
2021/06/13 03:59:48;;;;;;;15.57;8.13;;;12.60;99.90;;;;;;5095274;28;20429;-71
2021/06/13 04:02:15;;;;;;;16.43;11.30;;;12.60;99.90;;;;;;5095134;28;20429;-71
2021/06/13 04:04:43;;;;;;;13.70;9.40;;;12.60;99.90;;;;;;5094476;28;20412;-72
2021/06/13 04:07:10;;;;;;;12.37;8.90;;;12.60;99.90;;;;;;5094390;28;20401;-72
2021/06/13 04:09:39;;;;;;;14.23;9.40;;;12.60;99.90;;;;;;5094375;28;20488;-71
2021/06/13 04:12:06;;;;;;;15.50;9.33;;;12.60;99.90;;;;;;5094287;28;20404;-71
2021/06/13 04:14:33;;;;;;;16.27;8.60;;;12.60;99.90;;;;;;5094512;28;20394;-71
2021/06/13 04:16:59;;;;;;;12.03;7.87;;;12.60;99.90;;;;;;5105098;28;20407;-71
2021/06/13 04:19:25;;;;;;;13.80;8.80;;;12.60;99.90;;;;;;5114636;28;20435;-71
2021/06/13 04:21:51;;;;;;;11.10;8.90;;;12.60;99.90;;;;;;5114425;28;20549;-69
2021/06/13 04:24:17;;;;;;;9.60;7.63;;;12.60;99.90;;;;;;5114415;28;20154;-69
2021/06/13 04:26:43;;;;;;;10.90;8.57;;;12.60;99.90;;;;;;5114291;28;20163;-69
2021/06/13 04:29:11;;;;;;;14.07;9.47;;;12.70;99.90;;;;;;5114527;28;20446;-69
2021/06/13 04:31:37;;;;;;;19.83;8.97;;;12.70;99.90;;;;;;5114936;28;20381;-69
2021/06/13 04:34:02;;;;;;;14.33;10.57;;;12.70;99.90;;;;;;5103299;28;20461;-69
2021/06/13 04:36:28;;;;;;;11.93;8.00;;;12.70;99.90;;;;;;5094261;28;20397;-70
2021/06/13 04:38:53;;;;;;;11.60;8.07;;;12.70;99.90;;;;;;5093676;28;20171;-69
2021/06/13 04:41:20;;;;;;;14.77;8.60;;;12.70;99.90;;;;;;5093928;28;20577;-69
2021/06/13 04:43:46;;;;;;;12.27;7.67;;;12.80;99.90;;;;;;5093800;28;20271;-69
2021/06/13 04:46:13;;;;;;;15.70;8.17;;;12.80;99.90;;;;;;5094446;28;20746;-69
2021/06/13 04:48:40;;;;;;;12.60;7.50;;;12.80;99.90;;;;;;5093658;28;20397;-69
2021/06/13 04:51:09;;;;;;;15.13;9.17;;;12.80;99.90;;;;;;5094052;28;20508;-69
2021/06/13 04:56:14;;;;;;;14.73;8.87;;;12.80;99.90;;;;;;5147418;27;20289;-70
2021/06/13 04:58:39;;;;;;;13.73;8.13;;;12.90;99.90;;;;;;5131052;28;20870;-70
2021/06/13 05:01:05;;;;;;;15.43;8.30;;;12.90;99.90;;;;;;5132134;28;20409;-71
2021/06/13 05:03:30;;;;;;;10.20;7.30;;;13.00;99.90;;;;;;5131424;28;20146;-70
2021/06/13 05:05:56;;;;;;;11.27;7.00;;;13.00;99.90;;;;;;5131637;28;20215;-70
2021/06/13 05:08:22;;;;;;;12.40;7.30;;;13.10;99.90;;;;;;5130603;28;20180;-70
2021/06/13 05:10:48;;;;;;;16.93;8.10;;;13.10;99.90;;;;;;5131358;28;20181;-70
2021/06/13 05:13:16;;;;;;;13.67;8.50;;;13.10;99.90;;;;;;5131357;28;20163;-70
2021/06/13 05:15:42;;;;;;;12.10;6.27;;;13.20;99.90;;;;;;5131895;28;20178;-70
2021/06/13 05:18:08;;;;;;;12.70;7.27;;;13.20;99.90;;;;;;5131120;28;20771;-70
2021/06/13 05:20:34;;;;;;;10.87;6.53;;;13.30;99.90;;;;;;5130912;28;20418;-70
2021/06/13 05:23:02;;;;;;;11.50;6.80;;;13.30;99.90;;;;;;5131051;28;20169;-70
2021/06/13 05:25:32;;;;;;;16.37;7.30;;;13.40;99.90;;;;;;5130029;28;20412;-70
2021/06/13 05:27:58;;;;;;;10.57;6.30;;;13.50;99.90;;;;;;5131200;28;20536;-70
2021/06/13 05:30:25;;;;;;;11.40;6.90;;;13.50;99.90;;;;;;5131284;28;20397;-70
2021/06/13 05:32:51;;;;;;;8.90;5.77;;;13.50;99.90;;;;;;5130938;28;20479;-71
2021/06/13 05:35:17;;;;;;;15.20;6.77;;;13.50;99.90;;;;;;5130670;28;20581;-70
2021/06/13 05:37:43;;;;;;;10.23;6.73;;;13.50;99.90;;;;;;5131075;28;20197;-70
2021/06/13 05:40:09;;;;;;;7.80;6.20;;;13.60;99.90;;;;;;5130719;28;20409;-70
2021/06/13 05:42:35;;;;;;;15.43;5.90;;;13.60;99.90;;;;;;5130127;28;20396;-71
2021/06/13 05:45:03;;;;;;;11.57;5.60;;;13.70;99.90;;;;;;5130943;28;20406;-70
2021/06/13 05:47:28;;;;;;;10.03;6.03;;;13.70;99.90;;;;;;5130495;28;20396;-70
2021/06/13 05:49:54;;;;;;;12.17;5.83;;;13.80;99.90;;;;;;5130992;28;20400;-70
2021/06/13 05:52:19;;;;;;;10.23;6.07;;;13.80;99.90;;;;;;5130487;28;20189;-70
2021/06/13 05:54:45;;;;;;;11.10;5.27;;;13.90;99.90;;;;;;5130181;28;20202;-70
2021/06/13 05:57:10;;;;;;;7.63;5.20;;;14.00;99.90;;;;;;5130753;28;20516;-71
2021/06/13 05:59:36;;;;;;;7.43;4.80;;;14.00;99.90;;;;;;5111050;28;20205;-70
2021/06/13 06:02:01;;;;;;;10.30;6.70;;;14.10;99.90;;;;;;5109825;28;20238;-70
2021/06/13 06:04:27;;;;;;;9.23;5.33;;;14.10;99.90;;;;;;5109951;28;20158;-70
2021/06/13 06:06:53;;;;;;;9.93;5.47;;;14.20;99.90;;;;;;5100165;28;20148;-70
2021/06/13 06:09:18;;;;;;;14.63;4.83;;;14.20;99.90;;;;;;5095972;28;20195;-70
2021/06/13 06:11:44;;;;;;;10.83;4.67;;;14.30;99.90;;;;;;5096194;28;20152;-71
2021/06/13 06:14:09;;;;;;;8.30;4.47;;;14.30;99.90;;;;;;5096394;28;20266;-71
2021/06/13 06:16:35;;;;;;;8.17;4.90;;;14.40;99.90;;;;;;5096310;28;20221;-70
2021/06/13 06:19:01;;;;;;;9.37;4.33;;;14.30;99.90;;;;;;5096200;28;20213;-70
2021/06/13 06:21:26;;;;;;;6.17;4.37;;;14.40;99.90;;;;;;5096110;28;20167;-70
2021/06/13 06:23:53;;;;;;;8.00;4.10;;;14.50;99.90;;;;;;5095738;28;20389;-70
2021/06/13 06:26:19;;;;;;;8.90;4.30;;;14.50;99.90;;;;;;5096151;28;20617;-70
2021/06/13 06:28:45;;;;;;;11.70;5.30;;;14.60;99.90;;;;;;5095822;28;20971;-70
2021/06/13 06:31:11;;;;;;;5.77;5.17;;;14.60;99.90;;;;;;5095787;28;20393;-70
2021/06/13 06:33:37;;;;;;;6.90;4.70;;;14.60;99.90;;;;;;5110998;28;20400;-70
2021/06/13 06:36:03;;;;;;;7.40;4.23;;;14.70;99.90;;;;;;5115999;28;20215;-71
2021/06/13 06:38:29;;;;;;;6.37;4.23;;;14.80;99.90;;;;;;5115806;28;20400;-71
2021/06/13 06:40:54;;;;;;;9.10;4.37;;;14.90;99.90;;;;;;5116181;28;20750;-71
2021/06/13 06:43:20;;;;;;;13.67;5.50;;;15.00;99.90;;;;;;5115922;28;20155;-71
2021/06/13 06:45:45;;;;;;;6.47;4.93;;;15.00;99.90;;;;;;5115987;28;20185;-70
2021/06/13 06:48:11;;;;;;;7.93;4.50;;;15.10;99.90;;;;;;5115767;28;20165;-70
2021/06/13 06:50:37;;;;;;;6.10;4.27;;;15.10;99.90;;;;;;5114806;28;20658;-70
2021/06/13 06:53:02;;;;;;;6.20;4.67;;;15.10;99.90;;;;;;5116491;28;20155;-70
2021/06/13 06:55:28;;;;;;;6.40;4.10;;;15.20;99.90;;;;;;5115848;28;20203;-70
2021/06/13 06:57:55;;;;;;;6.00;3.97;;;15.30;99.90;;;;;;5115420;28;20243;-70
2021/06/13 07:00:21;;;;;;;5.30;3.60;;;15.40;99.90;;;;;;5115399;28;20251;-70
2021/06/13 07:02:47;;;;;;;7.23;3.90;;;15.60;99.90;;;;;;5115469;28;20389;-70
2021/06/13 07:05:13;;;;;;;4.93;3.30;;;15.70;99.90;;;;;;5115379;28;20612;-70
2021/06/13 07:07:39;;;;;;;6.40;4.07;;;15.70;98.90;;;;;;5114506;28;20246;-70
2021/06/13 07:10:05;;;;;;;6.30;4.07;;;15.90;97.40;;;;;;5115891;28;20412;-70
2021/06/13 07:12:31;;;;;;;7.43;4.00;;;16.00;96.00;;;;;;5115467;28;20171;-71
2021/06/13 07:14:57;;;;;;;6.03;4.00;;;16.00;97.40;;;;;;5115119;28;20440;-71
2021/06/13 07:17:23;;;;;;;5.93;4.33;;;16.10;97.50;;;;;;5114582;28;20389;-70
2021/06/13 07:19:48;;;;;;;6.80;3.90;;;16.10;97.00;;;;;;5114630;28;20612;-70
2021/06/13 07:22:14;;;;;;;6.67;3.33;;;16.30;96.30;;;;;;5114979;28;20177;-70
2021/06/13 07:24:39;;;;;;;7.50;4.17;;;16.60;95.80;;;;;;5114605;28;20182;-71
2021/06/13 07:27:05;;;;;;;7.77;4.40;;;17.10;94.80;;;;;;5114848;28;20163;-70
2021/06/13 07:29:31;;;;;;;5.60;4.07;;;18.00;93.80;;;;;;5115048;28;20645;-70
2021/06/13 07:31:56;;;;;;;4.30;3.80;;;19.20;89.70;;;;;;5114953;28;20167;-71
2021/06/13 07:34:22;;;;;;;4.10;2.77;;;20.30;82.20;;;;;;5114667;28;20374;-71
2021/06/13 07:36:48;;;;;;;6.90;3.33;;;21.60;72.20;;;;;;5114611;28;20151;-70
2021/06/13 07:39:13;;;;;;;4.20;2.70;;;22.70;63.70;;;;;;5114982;28;20189;-71
2021/06/13 07:41:39;;;;;;;7.10;3.10;;;23.80;58.60;;;;;;5113560;28;20650;-71
2021/06/13 07:44:05;;;;;;;3.67;3.27;;;24.90;54.40;;;;;;5114605;28;20194;-71
2021/06/13 07:46:34;;;;;;;6.07;3.87;;;26.00;51.00;;;;;;5114514;28;20166;-71
2021/06/13 07:48:59;;;;;;;4.73;2.90;;;26.90;47.30;;;;;;5114355;28;20155;-71
2021/06/13 07:51:25;;;;;;;6.23;3.40;;;27.60;44.30;;;;;;5114285;28;20896;-71
2021/06/13 07:53:51;;;;;;;5.67;3.10;;;28.10;42.60;;;;;;5114377;28;20162;-72
2021/06/13 07:56:16;;;;;;;4.13;2.60;;;28.60;41.00;;;;;;5114391;28;20189;-71
2021/06/13 07:58:42;;;;;;;4.60;2.67;;;29.00;39.70;;;;;;5113528;28;20213;-71
2021/06/13 08:01:08;;;;;;;8.33;3.37;;;29.70;38.60;;;;;;5098054;28;20534;-71
2021/06/13 08:03:37;;;;;;;6.47;3.53;;;30.10;37.20;;;;;;5093562;28;20394;-72
2021/06/13 08:06:02;;;;;;;7.07;3.43;;;30.20;37.20;;;;;;5093815;28;20278;-72
2021/06/13 08:08:28;;;;;;;6.27;2.73;;;30.20;36.80;;;;;;5093734;28;20429;-72
2021/06/13 08:10:53;;;;;;;5.33;3.50;;;30.50;36.10;;;;;;5093539;28;20156;-72
2021/06/13 08:13:20;;;;;;;4.43;3.40;;;30.80;34.80;;;;;;5093524;28;20522;-72
2021/06/13 08:15:45;;;;;;;5.10;3.00;;;31.00;34.40;;;;;;5093879;28;20199;-72
2021/06/13 08:18:13;;;;;;;5.77;3.17;;;31.40;33.50;;;;;;5093521;28;20402;-72
2021/06/13 08:20:39;;;;;;;4.67;3.40;;;31.70;33.20;;;;;;5093528;28;20147;-72
2021/06/13 08:23:05;;;;;;;6.57;3.70;;;32.30;32.40;;;;;;5093617;28;20390;-72
2021/06/13 08:25:31;;;;;;;7.30;3.10;;;33.10;31.10;;;;;;5093526;28;20389;-72
2021/06/13 08:27:56;;;;;;;12.77;4.70;;;34.10;30.00;;;;;;5093333;28;20701;-72
2021/06/13 08:30:23;;;;;;;4.43;3.10;;;34.60;29.00;;;;;;5092936;28;20179;-72
2021/06/13 08:32:48;;;;;;;8.33;3.73;;;35.10;28.60;;;;;;5110334;28;20647;-72
2021/06/13 08:35:14;;;;;;;6.00;2.97;;;35.50;27.70;;;;;;5113501;28;20438;-73
2021/06/13 08:37:40;;;;;;;7.17;3.20;;;36.20;27.30;;;;;;5113632;28;20196;-71
2021/06/13 08:40:09;;;;;;;4.53;2.97;;;36.90;26.40;;;;;;5113459;28;20393;-71
2021/06/13 08:42:35;;;;;;;4.67;3.37;;;37.70;25.70;;;;;;5113585;28;20265;-71
2021/06/13 08:45:02;;;;;;;3.40;2.50;;;37.90;24.70;;;;;;5113172;28;20396;-71
2021/06/13 08:47:28;;;;;;;6.73;3.23;;;38.40;24.60;;;;;;5113548;28;20392;-70
2021/06/13 08:49:53;;;;;;;4.40;3.07;;;38.70;24.30;;;;;;5112827;28;20419;-71
2021/06/13 08:52:19;;;;;;;3.60;2.80;;;38.50;24.70;;;;;;5113626;28;20154;-70
2021/06/13 08:54:45;;;;;;;5.40;3.37;;;38.40;23.90;;;;;;5113214;28;20694;-70
2021/06/13 08:57:11;;;;;;;4.90;3.00;;;38.20;24.40;;;;;;5113258;28;20518;-70
2021/06/13 08:59:39;;;;;;;5.57;4.13;;;38.80;24.40;;;;;;5113254;28;20185;-70
2021/06/13 09:02:06;;;;;;;3.43;3.13;;;39.30;24.00;;;;;;5113100;28;20419;-70
2021/06/13 09:04:35;;;;;;;4.07;3.00;;;39.80;23.30;;;;;;5113809;28;20395;-71
2021/06/13 09:07:11;;;;;;;6.23;2.57;;;39.70;22.50;;;;;;5112570;28;20503;-71
2021/06/13 09:09:37;;;;;;;4.47;2.60;;;39.10;23.10;;;;;;5113416;28;20422;-71
2021/06/13 09:12:05;;;;;;;3.50;2.90;;;39.10;23.40;;;;;;5112815;28;20426;-71
2021/06/13 09:14:37;;;;;;;6.37;3.30;;;38.70;23.00;;;;;;5113066;28;20448;-71
2021/06/13 09:17:17;;;;;;;5.40;3.00;;;38.80;23.30;;;;;;5113130;28;20432;-71
2021/06/13 09:22:41;;;;;;;5.23;3.13;;;38.10;23.80;;;;;;5139641;27;20298;-71
2021/06/13 09:25:11;;;;;;;3.77;3.00;;;38.00;23.80;;;;;;5110738;28;20480;-71
2021/06/13 09:27:38;;;;;;;3.80;2.90;;;37.90;24.30;;;;;;5110650;28;20389;-71
2021/06/13 09:30:05;;;;;;;3.60;2.57;;;38.00;24.10;;;;;;5110416;28;20420;-71
2021/06/13 09:32:31;;;;;;;4.67;3.10;;;37.50;24.50;;;;;;5110548;28;20448;-71
2021/06/13 09:35:17;;;;;;;4.87;3.70;;;37.00;24.50;;;;;;5110780;28;20385;-71
2021/06/13 09:40:52;;;;;;;4.90;3.17;;;35.90;25.80;;;;;;5145514;27;20679;-71
2021/06/13 09:43:25;;;;;;;4.40;3.33;;;35.40;26.00;;;;;;5131242;28;20394;-71
2021/06/13 09:45:54;;;;;;;5.43;3.50;;;34.70;26.70;;;;;;5131483;28;20391;-71
2021/06/13 09:48:20;;;;;;;4.70;3.23;;;34.20;27.00;;;;;;5131514;28;20396;-71
2021/06/13 09:50:50;;;;;;;3.60;2.90;;;33.10;27.50;;;;;;5131228;28;20946;-71
2021/06/13 09:58:54;;;;;;;4.53;3.10;;;31.80;28.80;;;;;;5141283;27;20306;-71
2021/06/13 10:01:22;;;;;;;4.50;2.93;;;31.10;30.20;;;;;;5111033;28;20407;-71
2021/06/13 10:03:48;;;;;;;3.30;3.00;;;30.70;30.80;;;;;;5110834;28;20416;-71
2021/06/13 10:06:18;;;;;;;4.97;3.63;;;30.40;31.40;;;;;;5110808;28;20490;-71
2021/06/13 10:08:45;;;;;;;5.07;3.30;;;30.20;32.40;;;;;;5110793;28;20483;-71
2021/06/13 10:11:11;;;;;;;3.90;3.07;;;30.00;32.70;;;;;;5110923;28;20401;-71
2021/06/13 10:21:40;;;;;;;6.27;3.30;;;29.40;33.10;;;;;;5147412;27;20800;-72
2021/06/13 10:24:09;;;;;;;11.80;6.23;;;28.30;36.20;;;;;;5131315;28;20774;-72
2021/06/13 10:26:38;;;;;;;5.40;3.17;;;28.10;36.70;;;;;;5131222;28;20396;-72
2021/06/13 10:29:04;;;;;;;6.00;3.87;;;28.00;36.70;;;;;;5131548;28;20398;-72
2021/06/13 10:31:31;;;;;;;7.30;4.70;;;27.70;36.50;;;;;;5116579;28;20440;-72
2021/06/13 10:33:57;;;;;;;4.00;3.30;;;27.40;37.00;;;;;;5110546;28;20492;-72
2021/06/13 10:36:23;;;;;;;5.60;3.60;;;26.70;37.60;;;;;;5110637;28;20403;-71
2021/06/13 10:38:49;;;;;;;7.90;4.23;;;26.30;38.60;;;;;;5110619;28;20470;-72
2021/06/13 10:41:14;;;;;;;4.87;3.93;;;25.90;39.40;;;;;;5110519;28;20197;-71
2021/06/13 10:43:40;;;;;;;6.40;3.70;;;25.60;39.50;;;;;;5110577;28;20164;-71
2021/06/13 10:46:10;;;;;;;6.47;3.63;;;25.40;41.00;;;;;;5111045;28;20563;-72
2021/06/13 10:48:38;;;;;;;6.07;3.93;;;25.30;40.70;;;;;;5111078;28;20412;-71
2021/06/13 10:54:25;;;;;;;5.10;3.67;;;25.00;41.40;;;;;;5147418;27;20297;-71
2021/06/13 10:56:56;;;;;;;4.57;3.80;;;24.60;39.40;;;;;;5131200;28;20395;-71
2021/06/13 10:59:22;;;;;;;6.70;3.60;;;24.30;40.30;;;;;;5131390;27;20410;-71
2021/06/13 11:18:07;;;;;;;5.40;3.83;;;23.00;42.70;;;;;;5126751;27;20355;-71
2021/06/13 11:23:13;;;;;;;7.87;4.03;;;22.80;45.60;;;;;;5106732;27;20303;-71
2021/06/13 11:25:40;;;;;;;5.57;3.80;;;22.80;45.20;;;;;;5090372;28;20401;-71
2021/06/13 11:44:09;;;;;;;6.30;4.23;;;22.20;47.10;;;;;;5147687;27;20286;-71
2021/06/13 11:46:41;;;;;;;8.17;5.07;;;22.10;47.70;;;;;;5131294;28;20394;-71
2021/06/13 11:49:10;;;;;;;4.90;4.50;;;22.10;47.90;;;;;;5131332;28;20549;-71
2021/06/13 11:54:59;;;;;;;7.47;4.77;;;22.00;48.40;;;;;;5147543;27;20289;-70
2021/06/13 12:00:16;;;;;;;6.53;4.00;;;22.00;48.40;;;;;;5131364;27;20315;-71
2021/06/13 12:02:42;;;;;;;5.50;3.77;;;22.00;49.30;;;;;;5110527;28;20814;-71
2021/06/13 12:05:09;;;;;;;5.43;4.00;;;21.90;46.40;;;;;;5110588;28;20401;-71
2021/06/13 12:07:38;;;;;;;4.90;3.40;;;21.80;45.20;;;;;;5110700;28;20476;-71
2021/06/13 12:10:17;;;;;;;7.33;4.50;;;21.60;45.40;;;;;;5110660;28;20804;-71
2021/06/13 12:12:43;;;;;;;4.77;3.70;;;21.60;45.40;;;;;;5110925;28;20436;-71
2021/06/13 12:15:09;;;;;;;6.07;4.70;;;21.50;45.30;;;;;;5110824;28;20436;-71
2021/06/13 12:17:37;;;;;;;6.00;4.17;;;21.40;45.40;;;;;;5110394;28;20609;-71
2021/06/13 12:20:05;;;;;;;8.60;4.63;;;21.30;45.50;;;;;;5110577;28;20388;-71
2021/06/13 12:27:50;;;;;;;4.47;3.33;;;21.20;46.40;;;;;;5147702;27;20327;-70
2021/06/13 12:35:38;;;;;;;5.77;3.60;;;21.00;45.90;;;;;;5131372;27;20360;-70
2021/06/13 12:38:10;;;;;;;5.30;3.50;;;21.00;45.00;;;;;;5110745;28;20400;-71
2021/06/13 12:43:14;;;;;;;5.80;3.33;;;21.00;46.10;;;;;;5147460;27;20289;-71
2021/06/13 12:45:41;;;;;;;6.57;3.80;;;21.00;46.60;;;;;;5131342;28;20422;-71
2021/06/13 12:48:09;;;;;;;5.67;3.40;;;20.90;46.20;;;;;;5111145;28;20423;-71
2021/06/13 12:50:38;;;;;;;7.47;4.00;;;21.00;45.50;;;;;;5110819;28;20849;-71
2021/06/13 12:53:08;;;;;;;7.70;3.23;;;20.90;45.20;;;;;;5110849;28;20385;-71
2021/06/13 12:55:39;;;;;;;7.30;4.10;;;20.90;44.90;;;;;;5111324;28;20388;-71
2021/06/13 12:58:11;;;;;;;7.30;5.13;;;20.90;45.30;;;;;;5110815;28;20392;-71
2021/06/13 13:00:37;;;;;;;4.10;3.40;;;20.80;45.20;;;;;;5110423;28;20396;-71
2021/06/13 13:03:11;;;;;;;7.90;3.77;;;20.80;45.70;;;;;;5110985;28;20473;-71
2021/06/13 13:05:39;;;;;;;6.80;3.77;;;20.80;46.20;;;;;;5110457;28;20157;-71
2021/06/13 13:08:23;;;;;;;5.47;4.53;;;20.80;47.10;;;;;;5110631;28;20404;-71
2021/06/13 13:13:35;;;;;;;8.23;4.37;;;20.90;48.00;;;;;;5147490;27;20302;-70
2021/06/13 13:16:02;;;;;;;3.93;3.33;;;20.90;47.60;;;;;;5131538;28;20505;-71
2021/06/13 13:18:37;;;;;;;7.73;3.90;;;20.80;46.50;;;;;;5131596;28;20448;-70
2021/06/13 13:21:03;;;;;;;6.53;3.27;;;20.80;46.80;;;;;;5130624;28;20403;-70
2021/06/13 13:23:38;;;;;;;8.20;4.60;;;20.80;47.10;;;;;;5131945;28;20486;-71
2021/06/13 13:26:04;;;;;;;6.70;4.30;;;20.80;47.10;;;;;;5131305;28;20161;-70
2021/06/13 13:28:33;;;;;;;4.00;3.00;;;20.70;46.20;;;;;;5131205;28;20392;-70
2021/06/13 13:33:37;;;;;;;6.10;3.90;;;20.70;47.20;;;;;;5123601;27;20345;-70
2021/06/13 13:36:06;;;;;;;5.47;3.80;;;20.70;46.90;;;;;;5090540;28;20397;-70
2021/06/13 13:41:14;;;;;;;6.70;4.00;;;20.70;45.50;;;;;;5147512;27;20827;-71
2021/06/13 13:43:55;;;;;;;4.10;2.97;;;20.70;45.90;;;;;;5131528;28;20876;-71
2021/06/13 13:46:30;;;;;;;4.67;3.10;;;20.70;45.30;;;;;;5131219;28;20411;-71
2021/06/13 13:48:58;;;;;;;9.57;3.27;;;20.70;45.90;;;;;;5131269;28;20387;-71
2021/06/13 13:51:25;;;;;;;7.90;4.00;;;20.70;46.60;;;;;;5131442;28;20379;-71
2021/06/13 13:53:53;;;;;;;6.80;3.43;;;20.70;46.40;;;;;;5130585;28;20434;-71
2021/06/13 13:56:21;;;;;;;5.60;3.97;;;20.70;47.10;;;;;;5110568;28;20471;-71
2021/06/13 13:58:48;;;;;;;4.23;3.70;;;20.80;48.10;;;;;;5111132;28;20825;-71
2021/06/13 14:01:14;;;;;;;8.13;3.43;;;20.70;47.20;;;;;;5110593;28;20420;-71
2021/06/13 14:03:40;;;;;;;6.57;3.80;;;20.70;47.80;;;;;;5110548;28;20894;-71
2021/06/13 14:06:06;;;;;;;5.57;3.90;;;20.70;47.70;;;;;;5119570;28;20407;-71
2021/06/13 14:08:42;;;;;;;5.33;3.37;;;20.70;47.90;;;;;;5131190;28;20519;-71
2021/06/13 14:11:08;;;;;;;4.43;3.60;;;20.70;47.50;;;;;;5130176;28;20196;-71
2021/06/13 14:13:35;;;;;;;4.07;3.07;;;20.70;47.70;;;;;;5130723;28;20419;-71
2021/06/13 14:16:00;;;;;;;7.00;3.90;;;20.70;47.60;;;;;;5130720;28;20819;-69
2021/06/13 14:18:26;;;;;;;5.73;3.50;;;20.60;48.10;;;;;;5130824;28;20418;-71
2021/06/13 14:20:51;;;;;;;4.03;3.20;;;20.60;48.90;;;;;;5131083;28;20233;-71
2021/06/13 14:23:17;;;;;;;5.00;3.47;;;20.60;49.30;;;;;;5130976;28;20165;-71
2021/06/13 14:25:43;;;;;;;5.10;3.77;;;20.60;48.90;;;;;;5130788;28;20150;-71